HSPN

Port Sudan New International Airport

Port Sudan, Sudan
METAR HSPN 241100Z 33006KT CAVOK 40/21 Q1006
Observed Flight Rules
Sep-24 @ 11:00 UTC (31 minutes ago) Visual Flight Rules
Wind Visibility Clouds
330° at 6 knots 10,000+ meters
  • Clear skies
Temperatures Readings
Current 40°C / 104°F
Dewpoint 21°C / 70°F
Humidity 33%
Altimeter 29.7" Hg
Pressure 1006 hPa
Elevation 138
METAR HSPN 241100Z 33006KT CAVOK 40/21 Q1006
Observed Flight Rules
Sep-24 @ 11:00 UTC
(31 minutes ago)
VFR
Wind Visibility
330° at 6 knots 10,000+ meters
Clouds
  • Clear skies
Temperature Dewpoint
40°C / 104°F 21°C / 70°F
Humidity Altimeter Pressure
33% 29.7" Hg 1006 hPa